Time;durP1;ratioP1;P1;durP2;ratioP2;P2;SDS_P1;SDS_P2;PMS_P1;PMS_P2;Temp;Humidity;BMP_temperature;BMP_pressure;BME280_temperature;BME280_humidity;BME280_pressure;Samples;Min_cycle;Max_cycle;Signal;HPM_P1;HPM_P2
2022/06/13 00:00:01;;;;;;;13.20;10.68;;;;;;;16.83;89.35;100179.92;2105976;83;30193;-70
2022/06/13 00:03:04;;;;;;;16.02;10.88;;;;;;;16.85;89.24;100198.27;2106245;84;27661;-70
2022/06/13 00:06:07;;;;;;;14.65;10.98;;;;;;;16.77;89.27;100197.13;2168986;80;29832;-68
2022/06/13 00:09:10;;;;;;;17.98;11.43;;;;;;;16.93;89.47;100222.02;2168988;82;31903;-69
2022/06/13 00:12:12;;;;;;;15.05;11.00;;;;;;;16.97;89.46;100220.80;2168985;82;33778;-66
2022/06/13 00:15:15;;;;;;;12.78;11.40;;;;;;;17.00;89.44;100206.19;2169349;82;29349;-70
2022/06/13 00:18:18;;;;;;;9.98;7.92;;;;;;;17.03;88.77;100236.20;2169455;82;27688;-69
2022/06/13 00:21:28;;;;;;;9.78;7.62;;;;;;;17.03;88.77;100236.20;2134221;83;28661;-69
2022/06/13 00:24:31;;;;;;;10.93;8.53;;;;;;;16.94;88.31;100229.16;2133294;83;30740;-70
2022/06/13 00:27:33;;;;;;;12.47;9.00;;;;;;;16.81;88.43;100210.30;2134082;83;33678;-70
2022/06/13 00:30:37;;;;;;;13.18;8.63;;;;;;;16.92;88.41;100186.47;2134236;83;29400;-71
2022/06/13 00:33:39;;;;;;;10.10;8.33;;;;;;;16.92;88.41;100186.47;2134416;83;27625;-72
2022/06/13 00:36:43;;;;;;;10.40;6.50;;;;;;;16.88;88.47;100157.91;2134437;83;29138;-70
2022/06/13 00:39:46;;;;;;;11.15;7.53;;;;;;;16.83;88.35;100134.41;2134297;82;31122;-69
2022/06/13 00:42:49;;;;;;;11.78;8.50;;;;;;;16.75;88.01;100143.63;2134047;83;34343;-69
2022/06/13 00:45:52;;;;;;;9.28;7.72;;;;;;;16.74;88.28;100145.45;2134384;83;29323;-69
2022/06/13 00:49:01;;;;;;;8.53;7.72;;;;;;;16.75;88.50;100137.72;2134401;83;27681;-69
2022/06/13 00:52:24;;;;;;;9.78;7.40;;;;;;;16.77;88.65;100138.97;2154817;82;28701;-68
2022/06/13 00:55:37;;;;;;;8.15;6.87;;;;;;;16.76;88.74;100134.03;2156398;82;31565;-69
2022/06/13 00:58:45;;;;;;;8.30;7.17;;;;;;;16.75;88.86;100124.19;2155828;82;34137;-69
2022/06/13 01:01:47;;;;;;;13.62;6.70;;;;;;;16.75;88.86;100124.19;2156186;82;29483;-69
2022/06/13 01:04:52;;;;;;;11.25;6.97;;;;;;;16.70;88.70;100113.73;2156463;80;27608;-68
2022/06/13 01:07:55;;;;;;;7.12;6.35;;;;;;;16.65;88.64;100113.73;2155964;82;28869;-69
2022/06/13 01:11:17;;;;;;;7.10;6.50;;;;;;;16.60;89.01;100111.87;2155823;82;31903;-65
2022/06/13 01:15:01;;;;;;;7.90;7.20;;;;;;;16.60;89.01;100111.87;2155849;82;34264;-61
2022/06/13 01:18:34;;;;;;;6.55;5.95;;;;;;;16.55;89.01;100102.27;2155555;82;29552;-61
2022/06/13 01:22:14;;;;;;;10.10;6.47;;;;;;;16.47;89.24;100078.16;2155651;82;27630;-59
2022/06/13 01:25:47;;;;;;;9.23;6.35;;;;;;;16.60;89.35;100097.00;2133903;83;28782;-59
2022/06/13 01:29:32;;;;;;;8.65;6.55;;;;;;;16.58;89.40;100095.78;2134161;83;31491;-62
2022/06/13 01:32:59;;;;;;;7.17;6.47;;;;;;;16.54;89.41;100093.81;2134136;83;34265;-60
2022/06/13 01:36:18;;;;;;;8.78;6.15;;;;;;;16.50;89.48;100095.02;2133957;83;29359;-58
2022/06/13 01:39:51;;;;;;;7.35;6.65;;;;;;;16.50;89.58;100087.38;2131675;83;28083;-59
2022/06/13 01:43:15;;;;;;;7.30;6.60;;;;;;;16.49;89.73;100089.24;2133708;83;28649;-58
2022/06/13 01:46:38;;;;;;;8.88;6.05;;;;;;;16.49;89.77;100089.24;2133971;82;31714;-59
2022/06/13 01:49:55;;;;;;;6.33;5.78;;;;;;;16.47;89.76;100091.20;2134144;82;33793;-60
2022/06/13 01:53:30;;;;;;;9.95;7.03;;;;;;;16.40;89.46;100092.17;2133932;83;29775;-62
2022/06/13 01:57:00;;;;;;;7.70;7.10;;;;;;;16.40;89.46;100092.17;2134553;83;27618;-58
2022/06/13 02:00:10;;;;;;;11.03;7.55;;;;;;;16.39;89.85;100082.81;2134052;83;29101;-61
2022/06/13 02:03:27;;;;;;;8.73;7.83;;;;;;;16.36;90.11;100076.31;2134336;83;31171;-65
2022/06/13 02:06:35;;;;;;;8.38;7.58;;;;;;;16.37;90.45;100080.23;2120542;82;33813;-65
2022/06/13 02:09:46;;;;;;;9.18;7.90;;;;;;;16.37;90.29;100087.00;2155796;82;30208;-59
2022/06/13 02:12:53;;;;;;;10.68;8.43;;;;;;;16.37;90.29;100087.00;2155737;82;27900;-67
2022/06/13 02:15:58;;;;;;;9.83;8.20;;;;;;;16.27;90.29;100075.66;2190963;81;29984;-60
2022/06/13 02:19:15;;;;;;;;;;;;;;;16.38;90.42;100097.34;2194250;81;31045;-59
2022/06/13 02:22:38;;;;;;;10.30;8.88;;;;;;;16.39;90.46;100096.33;2191390;80;33070;-62
2022/06/13 02:26:09;;;;;;;9.93;8.93;;;;;;;16.39;90.46;100096.33;2191388;81;29371;-59
2022/06/13 02:29:31;;;;;;;11.35;10.25;;;;;;;16.37;90.56;100088.86;2192068;81;27630;-59
2022/06/13 02:32:47;;;;;;;11.45;10.20;;;;;;;16.39;90.75;100084.16;2191275;81;29950;-58
2022/06/13 02:35:56;;;;;;;12.03;10.23;;;;;;;16.40;90.93;100088.59;2191420;80;30796;-60
2022/06/13 02:39:06;;;;;;;12.88;10.65;;;;;;;16.44;90.98;100085.18;2191232;81;34268;-62
2022/06/13 02:42:16;;;;;;;11.97;10.35;;;;;;;16.46;91.00;100078.66;2191495;81;29335;-66
2022/06/13 02:45:31;;;;;;;11.53;10.32;;;;;;;16.49;91.09;100088.36;2191773;81;27585;-61
2022/06/13 02:48:47;;;;;;;11.70;10.53;;;;;;;16.53;91.18;100097.97;2191847;81;29456;-61
2022/06/13 02:52:13;;;;;;;12.20;10.90;;;;;;;16.56;91.34;100098.58;2191090;81;32182;-59
2022/06/13 02:55:15;;;;;;;;;;;;;;;16.60;91.31;100087.05;2151656;82;34176;-65
2022/06/13 02:58:31;;;;;;;11.83;10.20;;;;;;;16.62;91.34;100090.50;2149287;82;30351;-64
2022/06/13 03:01:38;;;;;;;12.95;9.58;;;;;;;16.62;91.31;100104.50;2149786;82;28289;-59
2022/06/13 03:04:48;;;;;;;15.50;10.23;;;;;;;16.51;91.37;100078.30;2148897;82;28650;-64
2022/06/13 03:08:11;;;;;;;16.30;10.98;;;;;;;16.67;91.47;100113.12;2149087;82;31494;-58
2022/06/13 03:11:50;;;;;;;19.98;13.38;;;;;;;16.71;91.57;100132.20;2170088;81;33060;-62
2022/06/13 03:15:01;;;;;;;20.15;13.08;;;;;;;16.73;91.36;100125.30;2175424;81;30115;-63
2022/06/13 03:18:27;;;;;;;18.07;11.83;;;;;;;16.73;91.50;100117.19;2175765;81;27880;-61
2022/06/13 03:21:40;;;;;;;17.15;11.05;;;;;;;16.71;91.28;100113.27;2175492;81;28083;-59
2022/06/13 03:24:50;;;;;;;15.65;11.22;;;;;;;16.69;91.26;100116.58;2175548;81;31017;-58
2022/06/13 03:28:08;;;;;;;12.80;11.40;;;;;;;16.69;91.43;100121.48;2173458;81;33110;-61
2022/06/13 03:31:15;;;;;;;12.78;11.48;;;;;;;16.73;91.64;100114.48;2178061;81;30192;-63
2022/06/13 03:34:28;;;;;;;15.63;11.60;;;;;;;16.74;91.48;100108.09;2178990;81;27687;-64
2022/06/13 03:37:35;;;;;;;16.48;11.33;;;;;;;16.75;91.62;100114.72;2178383;81;29863;-64
2022/06/13 03:40:40;;;;;;;12.78;11.43;;;;;;;16.79;91.84;100108.09;2178620;81;31122;-61
2022/06/13 03:44:02;;;;;;;12.40;11.00;;;;;;;16.82;91.83;100098.39;2143957;83;34565;-64
2022/06/13 03:47:12;;;;;;;13.68;11.12;;;;;;;16.89;91.99;100104.64;2141723;83;29394;-62
2022/06/13 03:50:30;;;;;;;12.50;11.38;;;;;;;16.89;91.99;100104.64;2178390;81;27702;-59
2022/06/13 03:53:39;;;;;;;13.40;12.10;;;;;;;16.91;91.99;100092.73;2178340;81;30129;-65
2022/06/13 03:56:58;;;;;;;12.82;10.88;;;;;;;16.95;92.21;100103.73;2157987;81;32284;-62
2022/06/13 04:00:23;;;;;;;16.17;11.93;;;;;;;16.99;92.16;100102.98;2178408;81;34536;-67
2022/06/13 04:03:28;;;;;;;14.40;12.90;;;;;;;16.99;92.15;100105.18;2143790;83;29711;-68
2022/06/13 04:06:39;;;;;;;13.22;11.75;;;;;;;16.99;92.51;100090.30;2138381;82;27643;-66
2022/06/13 04:09:46;;;;;;;15.65;13.30;;;;;;;16.93;92.21;100079.07;2132790;83;28868;-69
2022/06/13 04:13:14;;;;;;;15.30;13.25;;;;;;;17.06;92.12;100116.88;2133073;83;31003;-69
2022/06/13 04:16:33;;;;;;;12.68;10.85;;;;;;;17.05;92.04;100126.83;2132723;83;32915;-67
2022/06/13 04:19:59;;;;;;;11.15;10.00;;;;;;;16.92;91.70;100084.99;2126162;83;30511;-69
2022/06/13 04:23:24;;;;;;;10.48;8.43;;;;;;;16.93;91.27;100058.30;2129671;83;27641;-68
2022/06/13 04:26:49;;;;;;;8.88;7.97;;;;;;;16.81;90.57;100055.20;2126575;83;28742;-63
2022/06/13 04:29:58;;;;;;;;;;;;;;;16.71;90.41;100028.91;2145900;83;31834;-62
2022/06/13 04:33:14;;;;;;;12.23;9.58;;;;;;;16.68;90.62;100047.23;2143528;83;33763;-70
2022/06/13 04:36:19;;;;;;;13.00;9.50;;;;;;;16.69;91.15;100068.73;2142157;83;30562;-70
2022/06/13 04:39:25;;;;;;;10.68;8.03;;;;;;;16.69;90.82;100071.95;2142627;82;27710;-68
2022/06/13 04:42:31;;;;;;;10.25;8.25;;;;;;;16.73;91.13;100048.20;2142463;82;28632;-69
2022/06/13 04:45:47;;;;;;;13.05;8.65;;;;;;;16.82;91.63;100033.94;2125839;83;31121;-69
2022/06/13 04:48:52;;;;;;;8.70;7.83;;;;;;;16.86;91.34;100036.77;2142908;83;33487;-67
2022/06/13 04:51:55;;;;;;;14.43;8.20;;;;;;;16.97;91.55;100030.53;2143110;83;29323;-62
2022/06/13 04:55:15;;;;;;;9.40;8.10;;;;;;;17.00;91.21;100018.95;2143051;83;27716;-69
2022/06/13 04:58:33;;;;;;;8.88;7.40;;;;;;;17.11;91.53;100019.43;2143099;83;28691;-69
2022/06/13 05:01:45;;;;;;;10.35;7.90;;;;;;;17.23;91.64;100028.88;2142614;83;31123;-70
2022/06/13 05:04:48;;;;;;;10.72;7.10;;;;;;;17.34;91.62;100028.00;2139587;83;33360;-65
2022/06/13 05:07:51;;;;;;;9.58;7.85;;;;;;;17.46;91.75;100031.03;2150992;81;30287;-63
2022/06/13 05:10:58;;;;;;;8.83;7.92;;;;;;;17.54;91.76;100025.01;2153660;82;27661;-68
2022/06/13 05:14:08;;;;;;;9.25;7.58;;;;;;;17.65;91.80;100037.63;2117119;84;28694;-69
2022/06/13 05:17:44;;;;;;;8.78;7.20;;;;;;;17.76;91.72;100047.94;2182728;81;31009;-69
2022/06/13 05:21:16;;;;;;;10.08;7.28;;;;;;;17.83;91.26;100041.50;2107294;84;34432;-69
2022/06/13 05:24:26;;;;;;;10.15;6.87;;;;;;;18.01;91.67;100053.16;2107318;84;30419;-69
2022/06/13 05:27:33;;;;;;;9.28;7.95;;;;;;;18.17;91.50;100060.86;2108043;84;27694;-69
2022/06/13 05:30:36;;;;;;;9.20;8.05;;;;;;;18.35;91.72;100076.91;2075377;84;29603;-59
2022/06/13 05:33:41;;;;;;;13.22;7.55;;;;;;;18.49;91.35;100074.33;2107316;84;31159;-69
2022/06/13 05:36:44;;;;;;;13.22;8.25;;;;;;;18.62;90.59;100089.53;2084381;84;33043;-70
2022/06/13 05:39:47;;;;;;;10.50;7.58;;;;;;;18.73;90.47;100096.27;2084825;84;29335;-64
2022/06/13 05:42:50;;;;;;;16.62;7.75;;;;;;;18.82;89.54;100103.59;2107923;84;27767;-63
2022/06/13 05:45:53;;;;;;;10.32;7.85;;;;;;;18.93;88.87;100106.72;2107290;84;29905;-59
2022/06/13 05:48:56;;;;;;;16.20;7.35;;;;;;;19.06;88.35;100107.02;2107272;84;32485;-67
2022/06/13 05:51:58;;;;;;;10.98;7.33;;;;;;;19.13;87.66;100102.77;2107502;84;32968;-69
2022/06/13 05:55:00;;;;;;;10.18;6.15;;;;;;;19.25;87.33;100090.80;2107311;84;30205;-68
2022/06/13 05:58:15;;;;;;;9.20;5.72;;;;;;;19.36;86.54;100077.61;2164488;81;27684;-69
2022/06/13 06:01:21;;;;;;;9.53;5.72;;;;;;;19.45;85.58;100062.34;2182589;81;28630;-69
2022/06/13 06:04:35;;;;;;;5.37;4.65;;;;;;;19.56;84.73;100051.85;2182473;81;31600;-68
2022/06/13 06:07:41;;;;;;;6.00;4.45;;;;;;;19.65;84.84;100052.34;2179509;80;28754;-70
2022/06/13 06:10:44;;;;;;;5.40;4.60;;;;;;;19.77;84.57;100057.67;2178815;81;29360;-70
2022/06/13 06:13:47;;;;;;;8.55;4.53;;;;;;;19.88;84.51;100057.05;2178773;81;27731;-69
2022/06/13 06:16:51;;;;;;;8.50;4.25;;;;;;;20.02;84.00;100046.77;2178353;81;29488;-67
2022/06/13 06:19:55;;;;;;;4.90;4.40;;;;;;;20.08;83.24;100039.88;2178802;81;31829;-65
2022/06/13 06:22:58;;;;;;;7.20;4.87;;;;;;;20.13;82.82;100038.93;2178723;81;33739;-69
2022/06/13 06:26:02;;;;;;;6.53;4.78;;;;;;;20.18;82.41;100034.80;2143232;83;30007;-68
2022/06/13 06:29:05;;;;;;;5.58;4.33;;;;;;;20.27;82.60;100049.88;2143900;83;27703;-67
2022/06/13 06:32:10;;;;;;;5.97;4.45;;;;;;;20.28;81.83;100046.99;2143820;82;28678;-69
2022/06/13 06:35:14;;;;;;;6.00;4.40;;;;;;;20.34;81.78;100045.58;2143375;83;31159;-69
2022/06/13 06:38:17;;;;;;;5.53;4.53;;;;;;;20.42;81.62;100061.17;2143805;83;32978;-70
2022/06/13 06:41:19;;;;;;;5.20;4.12;;;;;;;20.48;81.39;100064.16;2142657;83;29498;-70
2022/06/13 06:44:22;;;;;;;7.12;4.00;;;;;;;20.53;80.95;100072.37;2178623;81;27694;-69
2022/06/13 06:47:24;;;;;;;6.53;3.80;;;;;;;20.58;80.54;100076.39;2143567;83;29855;-71
2022/06/13 06:50:31;;;;;;;6.67;3.95;;;;;;;20.65;80.78;100068.49;2143480;83;30472;-69
2022/06/13 07:00:19;;;;;;;4.40;3.80;;;;;;;20.73;79.37;100040.01;2178638;81;27636;-70
2022/06/13 07:03:21;;;;;;;3.72;3.42;;;;;;;20.78;78.95;100034.14;2178642;81;30605;-70
2022/06/13 07:06:22;;;;;;;6.70;3.58;;;;;;;20.86;78.46;100019.30;2179675;80;32310;-70
2022/06/13 07:09:25;;;;;;;4.15;3.45;;;;;;;20.97;78.68;100015.52;2202152;80;34354;-70
2022/06/13 07:12:28;;;;;;;3.95;3.62;;;;;;;21.11;78.50;100025.03;2202282;80;30187;-68
2022/06/13 07:15:31;;;;;;;5.10;3.52;;;;;;;21.30;78.42;100043.16;2202681;80;27639;-69
2022/06/13 07:18:35;;;;;;;4.53;3.80;;;;;;;21.44;77.05;100036.83;2202153;80;29897;-70
2022/06/13 07:21:36;;;;;;;9.67;4.33;;;;;;;21.57;76.85;100032.38;2202834;80;31884;-67
2022/06/13 07:24:39;;;;;;;5.30;4.03;;;;;;;21.74;77.14;100038.38;2202033;80;33809;-68
2022/06/13 07:27:41;;;;;;;7.72;4.42;;;;;;;21.92;76.55;100039.72;2202688;80;29528;-66
2022/06/13 07:30:43;;;;;;;8.93;4.45;;;;;;;22.12;76.35;100039.56;2202350;80;27646;-60
2022/06/13 07:33:47;;;;;;;6.62;4.47;;;;;;;22.21;75.63;100048.14;2202291;80;28689;-65
2022/06/13 07:36:52;;;;;;;4.72;4.17;;;;;;;22.33;75.56;100045.18;2202466;80;32011;-69
2022/06/13 07:39:54;;;;;;;5.22;3.60;;;;;;;22.50;75.93;100040.22;2202716;80;33098;-70
2022/06/13 07:43:00;;;;;;;9.40;3.92;;;;;;;22.69;74.94;100035.03;2202154;80;30479;-69
2022/06/13 07:46:05;;;;;;;9.18;3.80;;;;;;;22.86;74.19;100036.48;2202835;80;27621;-70
2022/06/13 07:49:08;;;;;;;8.28;4.17;;;;;;;23.11;74.77;100032.48;2202680;80;28464;-69
2022/06/13 07:52:10;;;;;;;7.65;3.35;;;;;;;23.40;74.10;100034.84;2202676;80;31011;-66
2022/06/13 07:55:12;;;;;;;6.95;2.87;;;;;;;23.72;73.63;100024.99;2202251;80;34122;-69
2022/06/13 07:58:21;;;;;;;4.03;2.77;;;;;;;24.00;72.40;100019.75;2202306;80;30506;-69
2022/06/13 08:01:24;;;;;;;4.90;3.00;;;;;;;24.22;71.74;100035.98;2201476;80;27737;-69
2022/06/13 08:04:26;;;;;;;6.28;4.08;;;;;;;24.36;70.57;100045.39;2202655;80;28726;-69
2022/06/13 08:07:28;;;;;;;7.15;4.47;;;;;;;24.38;70.19;100041.97;2194936;80;32327;-70
2022/06/13 08:10:30;;;;;;;8.55;5.05;;;;;;;24.34;69.32;100048.81;2178306;81;34353;-70
2022/06/13 08:13:37;;;;;;;6.75;5.55;;;;;;;24.30;69.23;100037.86;2178358;81;30504;-67
2022/06/13 08:16:40;;;;;;;7.80;6.58;;;;;;;24.40;69.34;100037.19;2178881;81;27620;-68
2022/06/13 08:19:42;;;;;;;9.20;8.00;;;;;;;24.48;68.70;100035.78;2178870;81;29022;-68
2022/06/13 08:22:47;;;;;;;11.68;7.72;;;;;;;24.71;69.05;100029.09;2178287;81;32073;-67
2022/06/13 08:25:51;;;;;;;8.28;7.47;;;;;;;24.83;68.23;100041.90;2143579;83;32943;-68
2022/06/13 08:28:53;;;;;;;11.77;8.50;;;;;;;24.86;67.60;100047.53;2142940;83;29339;-68
2022/06/13 08:31:56;;;;;;;11.73;9.75;;;;;;;24.85;67.62;100047.19;2178527;81;27635;-67
2022/06/13 08:34:58;;;;;;;10.75;9.30;;;;;;;24.87;66.84;100057.47;2143764;82;29003;-69
2022/06/13 08:38:03;;;;;;;12.05;9.40;;;;;;;24.91;66.78;100057.95;2143390;83;31882;-69
2022/06/13 08:41:19;;;;;;;12.68;10.23;;;;;;;24.96;66.89;100061.03;2143479;82;34382;-68
2022/06/13 08:44:32;;;;;;;12.10;10.18;;;;;;;24.81;65.88;100069.98;2106511;84;29942;-66
2022/06/13 08:47:48;;;;;;;15.63;11.53;;;;;;;24.49;65.38;100081.84;2142635;81;27563;-69
2022/06/13 08:51:07;;;;;;;13.40;12.00;;;;;;;24.14;65.40;100090.22;2178775;81;29641;-68
2022/06/13 08:54:11;;;;;;;11.90;10.45;;;;;;;23.82;65.57;100101.44;2143451;83;31798;-69
2022/06/13 08:57:14;;;;;;;13.10;11.68;;;;;;;23.55;65.63;100103.92;2142397;83;33089;-69
2022/06/13 09:00:21;;;;;;;12.93;10.58;;;;;;;23.37;65.90;100115.81;2178708;81;29487;-69
2022/06/13 09:03:49;;;;;;;15.20;11.40;;;;;;;23.16;65.62;100124.41;2178850;81;28207;-69
2022/06/13 09:07:19;;;;;;;13.00;10.78;;;;;;;22.84;65.65;100128.13;2178512;81;28663;-68
2022/06/13 09:10:37;;;;;;;16.80;11.20;;;;;;;22.43;65.68;100131.42;2033766;87;27757;-69
2022/06/13 09:14:07;;;;;;;12.68;11.35;;;;;;;22.07;65.83;100137.38;2031198;87;33594;-68
2022/06/13 09:17:43;;;;;;;12.88;10.93;;;;;;;21.73;65.91;100142.13;2033926;87;30033;-69
2022/06/13 09:21:26;;;;;;;13.68;7.53;;;;;;;21.42;66.64;100167.81;2026713;87;27827;-72
2022/06/13 09:24:42;;;;;;;16.82;8.15;;;;;;;20.99;66.02;100182.36;2033233;87;28883;-68
2022/06/13 09:28:17;;;;;;;11.85;7.33;;;;;;;20.53;66.68;100192.98;2031212;87;31428;-69
2022/06/13 09:31:32;;;;;;;12.70;6.97;;;;;;;20.21;67.00;100210.45;2033631;87;34278;-69
2022/06/13 09:34:48;;;;;;;10.28;7.25;;;;;;;19.89;67.36;100228.69;2033982;87;30517;-70
2022/06/13 09:37:58;;;;;;;18.62;8.88;;;;;;;19.76;68.01;100234.00;2032375;87;27753;-67
2022/06/13 09:41:05;;;;;;;13.18;8.95;;;;;;;19.61;68.47;100243.01;2033926;87;29140;-70
2022/06/13 09:44:21;;;;;;;12.45;8.90;;;;;;;19.55;69.04;100245.27;2033701;87;31890;-69
2022/06/13 09:47:41;;;;;;;12.75;7.53;;;;;;;19.52;69.14;100257.79;2142070;83;34199;-69
2022/06/13 09:51:00;;;;;;;11.22;7.05;;;;;;;19.40;69.56;100258.84;2142394;83;30186;-69
2022/06/13 09:54:41;;;;;;;11.90;6.58;;;;;;;19.31;69.44;100264.59;2142470;83;27633;-68
2022/06/13 09:58:07;;;;;;;11.73;6.83;;;;;;;19.15;69.59;100265.55;2065640;86;29873;-62
2022/06/13 10:01:43;;;;;;;9.03;6.30;;;;;;;19.00;69.89;100267.25;2066031;86;31426;-68
2022/06/13 10:04:52;;;;;;;16.67;7.17;;;;;;;18.85;69.88;100262.62;2065800;86;34982;-68
2022/06/13 10:08:18;;;;;;;9.73;6.42;;;;;;;18.71;70.35;100254.77;2069103;85;29365;-60
2022/06/13 10:11:55;;;;;;;11.18;6.37;;;;;;;18.64;70.57;100262.56;2081356;85;27757;-65
2022/06/13 10:15:31;;;;;;;8.50;5.35;;;;;;;18.58;70.82;100271.24;2080933;85;29886;-65
2022/06/13 10:18:53;;;;;;;12.68;5.95;;;;;;;18.54;70.85;100262.48;2080838;84;32424;-68
2022/06/13 10:22:10;;;;;;;9.20;6.25;;;;;;;18.49;70.83;100256.09;2080738;85;32962;-63
2022/06/13 10:25:45;;;;;;;9.45;5.47;;;;;;;18.45;70.93;100244.27;2095581;84;28772;-62
2022/06/13 10:29:44;;;;;;;14.80;6.67;;;;;;;18.46;71.25;100250.91;1995296;89;27775;-59
2022/06/13 10:33:16;;;;;;;10.25;6.40;;;;;;;18.46;71.29;100248.72;1994955;89;29137;-66
2022/06/13 10:36:27;;;;;;;10.70;6.97;;;;;;;18.41;71.54;100241.45;2026113;87;30293;-60
2022/06/13 10:39:30;;;;;;;12.03;7.25;;;;;;;18.39;71.58;100225.31;1991992;89;33064;-58
2022/06/13 10:42:34;;;;;;;13.75;7.53;;;;;;;18.43;72.02;100243.53;2063727;86;29414;-62
2022/06/13 10:45:38;;;;;;;11.70;7.03;;;;;;;18.57;72.65;100236.45;2046299;87;27772;-62
2022/06/13 10:48:51;;;;;;;11.63;7.67;;;;;;;18.75;72.60;100230.45;2048968;86;28833;-61
2022/06/13 10:51:56;;;;;;;16.05;7.70;;;;;;;18.94;72.86;100227.04;2048528;86;32448;-64
2022/06/13 10:55:08;;;;;;;11.95;7.47;;;;;;;19.20;73.12;100234.80;2047431;86;32975;-65
2022/06/13 10:58:17;;;;;;;14.98;7.85;;;;;;;19.50;73.29;100233.09;2048913;86;30177;-59
2022/06/13 11:01:26;;;;;;;14.43;8.13;;;;;;;19.84;72.96;100224.64;2046275;87;27746;-60
2022/06/13 11:04:33;;;;;;;10.32;6.95;;;;;;;20.09;72.98;100222.45;2057616;82;28758;-59
2022/06/13 11:07:45;;;;;;;12.25;7.60;;;;;;;20.37;72.45;100228.91;2156336;80;32875;-58
2022/06/13 11:10:59;;;;;;;11.65;7.47;;;;;;;20.63;71.95;100231.94;2178231;81;33160;-58
2022/06/13 11:14:02;;;;;;;10.25;7.00;;;;;;;20.86;71.96;100233.53;2143690;83;29467;-60
2022/06/13 11:23:58;;;;;;;12.90;7.58;;;;;;;21.51;71.03;100213.23;2143388;83;31440;-58
2022/06/13 11:30:35;;;;;;;11.53;7.80;;;;;;;21.57;70.31;100219.10;2178478;81;29703;-58
2022/06/13 11:33:40;;;;;;;10.18;7.25;;;;;;;21.55;69.85;100214.66;2178418;81;27685;-59
2022/06/13 11:36:41;;;;;;;10.35;8.13;;;;;;;21.43;69.51;100221.28;2178565;81;30006;-58
2022/06/13 11:39:47;;;;;;;12.35;7.85;;;;;;;21.25;69.26;100225.30;2134782;81;32383;-62
2022/06/13 11:42:53;;;;;;;14.33;7.85;;;;;;;21.10;69.21;100212.14;2178402;81;33749;-59
2022/06/13 11:46:00;;;;;;;14.03;8.73;;;;;;;20.98;69.11;100216.05;2178462;81;29753;-62
2022/06/13 11:49:20;;;;;;;11.22;7.65;;;;;;;20.90;69.42;100211.81;2178382;81;27664;-59
2022/06/13 11:55:59;;;;;;;14.65;8.43;;;;;;;20.76;69.31;100214.50;2143384;83;32214;-58
2022/06/13 11:59:05;;;;;;;21.20;8.13;;;;;;;20.84;69.42;100216.50;2142269;83;34163;-58
2022/06/13 12:02:18;;;;;;;11.78;8.38;;;;;;;20.93;69.79;100220.55;2178537;81;29654;-58
2022/06/13 12:05:31;;;;;;;11.20;7.92;;;;;;;21.01;69.78;100222.58;2143756;83;27697;-58
2022/06/13 12:08:34;;;;;;;8.98;7.00;;;;;;;21.11;69.37;100219.80;2148865;82;28633;-58
2022/06/13 12:11:46;;;;;;;11.08;7.20;;;;;;;21.33;69.75;100217.25;2170283;82;30949;-58
2022/06/13 12:14:48;;;;;;;13.53;7.75;;;;;;;21.62;69.61;100215.44;2170084;82;33081;-58
2022/06/13 12:18:00;;;;;;;11.48;7.20;;;;;;;21.84;69.35;100221.86;2169726;81;30537;-58
2022/06/13 12:21:33;;;;;;;10.00;7.00;;;;;;;22.08;69.23;100216.84;2170202;82;27658;-59
2022/06/13 12:24:50;;;;;;;10.48;6.33;;;;;;;22.28;68.82;100217.08;2132719;83;29447;-59
2022/06/13 12:28:19;;;;;;;11.88;6.78;;;;;;;22.37;67.66;100204.37;2132646;83;31777;-59
2022/06/13 12:31:34;;;;;;;9.03;6.15;;;;;;;22.35;67.19;100217.80;2132697;83;33087;-57
2022/06/13 12:35:25;;;;;;;10.00;6.78;;;;;;;22.34;67.34;100216.95;2133112;83;29427;-58
2022/06/13 12:39:04;;;;;;;12.82;7.15;;;;;;;22.37;67.01;100214.41;2132934;83;27699;-58
2022/06/13 12:42:20;;;;;;;13.10;7.45;;;;;;;22.43;67.03;100216.56;2132714;83;29587;-57
2022/06/13 12:45:39;;;;;;;9.55;5.85;;;;;;;22.48;66.68;100229.25;2132983;83;31095;-58
2022/06/13 12:49:08;;;;;;;12.90;6.58;;;;;;;22.55;66.52;100231.69;2132655;83;32954;-59
2022/06/13 12:52:37;;;;;;;14.07;5.10;;;;;;;22.52;65.67;100237.97;2143136;82;30131;-58
2022/06/13 12:56:08;;;;;;;10.93;4.97;;;;;;;22.37;65.26;100232.16;2169793;82;27638;-58
2022/06/13 12:59:24;;;;;;;10.18;5.05;;;;;;;22.19;65.12;100224.80;2169710;81;29915;-57
2022/06/13 13:02:43;;;;;;;8.83;5.42;;;;;;;21.98;65.13;100234.14;2170140;81;30474;-57
2022/06/13 13:06:29;;;;;;;9.75;5.78;;;;;;;21.87;65.18;100223.94;2169676;82;33045;-57
2022/06/13 13:10:13;;;;;;;13.95;6.05;;;;;;;21.79;65.53;100219.24;2158723;81;30523;-57
2022/06/13 13:13:42;;;;;;;9.73;4.95;;;;;;;21.84;65.68;100221.02;2178712;81;27657;-57
2022/06/13 13:17:07;;;;;;;11.05;5.37;;;;;;;21.96;65.68;100227.10;2178544;81;29485;-57
2022/06/13 13:20:18;;;;;;;;;;;;;;;22.23;66.26;100215.83;2145956;83;31748;-57
2022/06/13 13:23:41;;;;;;;10.82;5.40;;;;;;;22.55;65.73;100219.92;2142600;82;32958;-57
2022/06/13 13:27:11;;;;;;;8.75;5.08;;;;;;;22.83;65.57;100221.17;2117776;83;29345;-58
2022/06/13 13:30:23;;;;;;;10.43;5.22;;;;;;;23.04;65.37;100218.96;2113387;83;27799;-58
2022/06/13 13:33:55;;;;;;;11.80;4.53;;;;;;;23.16;64.06;100210.48;2109999;84;28586;-57
2022/06/13 13:37:23;;;;;;;6.92;3.67;;;;;;;23.30;64.37;100207.19;2142270;82;32094;-58
2022/06/13 13:40:39;;;;;;;8.78;3.60;;;;;;;23.42;63.16;100200.06;2178520;81;33639;-57
2022/06/13 13:43:46;;;;;;;;;;;;;;;23.34;62.77;100204.98;2180846;81;30664;-58
2022/06/13 13:46:54;;;;;;;8.05;3.37;;;;;;;23.19;62.21;100195.98;2178648;81;27684;-57
2022/06/13 13:50:05;;;;;;;8.13;2.87;;;;;;;23.07;61.27;100189.08;2178548;81;29452;-57
2022/06/13 13:53:09;;;;;;;6.47;3.10;;;;;;;22.97;61.06;100188.34;2178250;81;31051;-57
2022/06/13 13:56:39;;;;;;;7.47;3.42;;;;;;;22.88;60.91;100191.00;2178706;80;32959;-58
2022/06/13 13:59:46;;;;;;;7.87;3.30;;;;;;;22.76;59.43;100190.91;2143197;83;30505;-58
2022/06/13 14:03:14;;;;;;;5.00;2.65;;;;;;;22.64;59.70;100186.20;2143569;83;27645;-57
2022/06/13 14:06:46;;;;;;;9.63;3.67;;;;;;;22.64;59.66;100178.01;2143488;82;28857;-57
2022/06/13 14:09:49;;;;;;;9.53;3.33;;;;;;;22.74;59.87;100178.80;2095199;83;32135;-57
2022/06/13 14:13:08;;;;;;;9.60;3.10;;;;;;;22.81;60.05;100180.38;2063518;86;33035;-58
2022/06/13 14:16:24;;;;;;;6.25;2.77;;;;;;;22.87;59.92;100167.95;2063817;86;29458;-58
2022/06/13 14:19:31;;;;;;;12.13;3.00;;;;;;;22.99;59.82;100171.28;2130943;83;27744;-57
2022/06/13 14:22:48;;;;;;;7.08;2.85;;;;;;;23.16;59.25;100162.17;2097352;84;28758;-57
2022/06/13 14:25:51;;;;;;;11.40;2.90;;;;;;;23.36;58.82;100175.11;2097479;84;31020;-57
2022/06/13 14:28:55;;;;;;;8.18;2.85;;;;;;;23.46;57.53;100167.28;2097207;84;33162;-58
2022/06/13 14:32:09;;;;;;;;;;;;;;;23.43;57.28;100165.75;2099745;84;29285;-57
2022/06/13 14:35:16;;;;;;;7.15;2.60;;;;;;;23.42;56.96;100165.40;2097320;84;27804;-57
2022/06/13 14:38:38;;;;;;;5.15;2.22;;;;;;;23.35;56.05;100156.13;2090198;84;28710;-57
2022/06/13 14:41:42;;;;;;;9.88;4.10;;;;;;;23.21;53.62;100152.14;2136017;83;32236;-57
2022/06/13 14:45:11;;;;;;;6.28;3.05;;;;;;;22.96;53.70;100160.14;2144547;82;33753;-57
2022/06/13 14:48:39;;;;;;;9.55;3.22;;;;;;;22.78;54.86;100168.89;2144199;83;30066;-60
2022/06/13 14:52:13;;;;;;;8.00;3.05;;;;;;;22.75;55.05;100164.09;2148904;82;28252;-59
2022/06/13 14:55:18;;;;;;;7.42;2.42;;;;;;;22.78;54.41;100166.16;2179756;81;28628;-58
2022/06/13 14:58:42;;;;;;;5.85;2.80;;;;;;;22.78;54.16;100166.16;2179762;81;31183;-58
2022/06/13 15:02:15;;;;;;;11.97;3.15;;;;;;;22.77;54.31;100173.51;2179387;81;34183;-58
2022/06/13 15:05:17;;;;;;;3.92;2.72;;;;;;;22.77;54.49;100174.88;2179746;81;29492;-58
2022/06/13 15:08:44;;;;;;;6.72;2.52;;;;;;;22.76;53.97;100174.00;2179840;81;28057;-58
2022/06/13 15:11:50;;;;;;;6.83;2.20;;;;;;;22.83;54.18;100181.08;2107643;83;29050;-57
2022/06/13 15:15:05;;;;;;;5.95;2.37;;;;;;;22.88;52.71;100183.33;2164898;82;31256;-57